Time;durP1;ratioP1;P1;durP2;ratioP2;P2;SDS_P1;SDS_P2;PMS_P1;PMS_P2;Temp;Humidity;BMP_temperature;BMP_pressure;BME280_temperature;BME280_humidity;BME280_pressure;Samples;Min_cycle;Max_cycle;Signal;HPM_P1;HPM_P2
2022/01/08 00:00:15;;;;;;;;;;;;;;;;;;5133783;27;840;-64
2022/01/08 00:02:41;;;;;;;;;;;;;;;;;;5152902;27;1041;-64
2022/01/08 00:05:07;;;;;;;;;;;;;;;;;;5149878;27;3072;-64
2022/01/08 00:07:32;;;;;;;;;;;;;;;;;;5140796;27;2846;-64
2022/01/08 00:09:57;;;;;;;;;;;;;;;;;;5139660;27;1230;-64
2022/01/08 00:12:23;;;;;;;;;;;;;;;;;;5138076;27;2649;-64
2022/01/08 00:14:49;;;;;;;;;;;;;;;;;;5132353;27;777;-64
2022/01/08 00:17:14;;;;;;;;;;;;;;;;;;5136178;27;860;-64
2022/01/08 00:19:39;;;;;;;;;;;;;;;;;;5135986;27;1909;-64
2022/01/08 00:22:05;;;;;;;;;;;;;;;;;;5135889;27;978;-63
2022/01/08 00:24:30;;;;;;;;;;;;;;;;;;5135964;27;828;-63
2022/01/08 00:26:55;;;;;;;;;;;;;;;;;;5135912;27;860;-64
2022/01/08 00:29:21;;;;;;;;;;;;;;;;;;5135847;27;954;-63
2022/01/08 00:31:46;;;;;;;;;;;;;;;;;;5135281;27;773;-63
2022/01/08 00:34:11;;;;;;;;;;;;;;;;;;5135607;27;883;-64
2022/01/08 00:36:36;;;;;;;;;;;;;;;;;;5135395;27;1023;-64
2022/01/08 00:39:02;;;;;;;;;;;;;;;;;;5113426;28;1921;-64
2022/01/08 00:41:28;;;;;;;;;;;;;;;;;;5114915;28;930;-63
2022/01/08 00:43:54;;;;;;;;;;;;;;;;;;5096580;28;1575;-63
2022/01/08 00:46:19;;;;;;;;;;;;;;;;;;5115117;28;825;-63
2022/01/08 00:48:45;;;;;;;;;;;;;;;;;;5114942;28;800;-63
2022/01/08 00:51:10;;;;;;;;;;;;;;;;;;5113729;28;848;-63
2022/01/08 00:53:36;;;;;;;;;;;;;;;;;;5114844;28;879;-63
2022/01/08 00:56:01;;;;;;;;;;;;;;;;;;5114032;28;1226;-63
2022/01/08 00:58:27;;;;;;;;;;;;;;;;;;5115762;27;1980;-63
2022/01/08 01:00:52;;;;;;;;;;;;;;;;;;5119261;27;2312;-63
2022/01/08 01:03:17;;;;;;;;;;;;;;;;;;5135042;27;832;-63
2022/01/08 01:05:43;;;;;;;;;;;;;;;;;;5134805;27;927;-63
2022/01/08 01:08:08;;;;;;;;;;;;;;;;;;5135045;27;839;-63
2022/01/08 01:10:33;;;;;;;;;;;;;;;;;;5134961;27;883;-63
2022/01/08 01:12:58;;;;;;;;;;;;;;;;;;5134410;27;1265;-63
2022/01/08 01:15:24;;;;;;;;;;;;;;;;;;5125972;27;1357;-63
2022/01/08 01:17:49;;;;;;;;;;;;;;;;;;5114690;28;1897;-63
2022/01/08 01:20:16;;;;;;;;;;;;;;;;;;5113694;28;773;-63
2022/01/08 01:25:21;;;;;;;;;;;;;;;;;;5113040;28;896;-64
2022/01/08 01:28:10;;;;;;;;;;;;;;;;;;5113642;28;1037;-64
2022/01/08 01:41:44;;;;;;;;;;;;;;;;;;5134853;27;688;-64
2022/01/08 01:47:02;;;;;;;;;;;;;;;;;;5134053;27;802;-64
2022/01/08 01:49:34;;;;;;;;;;;;;;;;;;5134726;27;815;-64
2022/01/08 01:52:01;;;;;;;;;;;;;;;;;;5134892;27;3433;-64
2022/01/08 01:54:27;;;;;;;;;;;;;;;;;;5143830;27;2799;-64
2022/01/08 01:56:54;;;;;;;;;;;;;;;;;;5133792;27;805;-64
2022/01/08 01:59:19;;;;;;;;;;;;;;;;;;5132943;27;2816;-64
2022/01/08 02:01:44;;;;;;;;;;;;;;;;;;5135713;27;788;-64
2022/01/08 02:04:09;;;;;;;;;;;;;;;;;;5154837;27;884;-64
2022/01/08 02:06:35;;;;;;;;;;;;;;;;;;5155048;27;844;-64
2022/01/08 02:09:00;;;;;;;;;;;;;;;;;;5154285;27;840;-63
2022/01/08 02:11:26;;;;;;;;;;;;;;;;;;5137467;27;2724;-64
2022/01/08 02:13:51;;;;;;;;;;;;;;;;;;5134151;27;950;-63
2022/01/08 02:16:17;;;;;;;;;;;;;;;;;;5133910;27;694;-63
2022/01/08 02:18:48;;;;;;;;;;;;;;;;;;5133566;27;1988;-63
2022/01/08 02:21:14;;;;;;;;;;;;;;;;;;5133697;27;816;-63
2022/01/08 02:23:41;;;;;;;;;;;;;;;;;;5115439;27;1218;-63
2022/01/08 02:26:08;;;;;;;;;;;;;;;;;;5134085;27;867;-63
2022/01/08 02:28:33;;;;;;;;;;;;;;;;;;5134278;27;824;-63
2022/01/08 02:30:58;;;;;;;;;;;;;;;;;;5133969;27;861;-63
2022/01/08 02:33:25;;;;;;;;;;;;;;;;;;5115426;27;931;-63
2022/01/08 02:35:50;;;;;;;;;;;;;;;;;;5116570;27;1270;-63
2022/01/08 02:38:15;;;;;;;;;;;;;;;;;;5149810;27;1962;-63
2022/01/08 02:40:49;;;;;;;;;;;;;;;;;;5152985;27;1201;-64
2022/01/08 02:43:15;;;;;;;;;;;;;;;;;;5153935;27;914;-63
2022/01/08 02:45:40;;;;;;;;;;;;;;;;;;5153554;27;974;-63
2022/01/08 02:48:05;;;;;;;;;;;;;;;;;;5116753;27;2708;-63
2022/01/08 02:50:31;;;;;;;;;;;;;;;;;;5132983;27;785;-63
2022/01/08 02:52:56;;;;;;;;;;;;;;;;;;5132716;27;820;-63
2022/01/08 02:55:21;;;;;;;;;;;;;;;;;;5133626;27;947;-63
2022/01/08 02:57:47;;;;;;;;;;;;;;;;;;5114089;27;903;-63
2022/01/08 03:00:14;;;;;;;;;;;;;;;;;;5132639;27;908;-63
2022/01/08 03:02:40;;;;;;;;;;;;;;;;;;5132953;27;1192;-63
2022/01/08 03:05:07;;;;;;;;;;;;;;;;;;5132578;27;994;-63
2022/01/08 03:07:32;;;;;;;;;;;;;;;;;;5132898;27;860;-63
2022/01/08 03:09:58;;;;;;;;;;;;;;;;;;5132389;27;856;-63
2022/01/08 03:12:27;;;;;;;;;;;;;;;;;;5132598;27;895;-63
2022/01/08 03:14:52;;;;;;;;;;;;;;;;;;5132786;27;912;-63
2022/01/08 03:17:17;;;;;;;;;;;;;;;;;;5132650;27;833;-63
2022/01/08 03:19:43;;;;;;;;;;;;;;;;;;5132627;27;1909;-63
2022/01/08 03:22:09;;;;;;;;;;;;;;;;;;5132276;27;876;-63
2022/01/08 03:24:35;;;;;;;;;;;;;;;;;;5132535;27;753;-63
2022/01/08 03:27:00;;;;;;;;;;;;;;;;;;5132630;27;872;-63
2022/01/08 03:29:26;;;;;;;;;;;;;;;;;;5113585;27;1589;-63
2022/01/08 03:31:51;;;;;;;;;;;;;;;;;;5113617;27;885;-63
2022/01/08 03:34:16;;;;;;;;;;;;;;;;;;5113709;27;875;-63
2022/01/08 03:36:42;;;;;;;;;;;;;;;;;;5132522;27;913;-63
2022/01/08 03:39:07;;;;;;;;;;;;;;;;;;5131191;27;1906;-63
2022/01/08 03:41:32;;;;;;;;;;;;;;;;;;5144634;27;1293;-63
2022/01/08 03:43:58;;;;;;;;;;;;;;;;;;5132194;27;970;-63
2022/01/08 03:46:27;;;;;;;;;;;;;;;;;;5132306;27;2756;-63
2022/01/08 03:51:27;;;;;;;;;;;;;;;;;;5151205;27;839;-63
2022/01/08 03:53:52;;;;;;;;;;;;;;;;;;5152905;27;970;-63
2022/01/08 03:56:17;;;;;;;;;;;;;;;;;;5152670;27;855;-63
2022/01/08 03:58:43;;;;;;;;;;;;;;;;;;5134483;27;1975;-63
2022/01/08 04:01:08;;;;;;;;;;;;;;;;;;5152680;27;820;-62
2022/01/08 04:03:33;;;;;;;;;;;;;;;;;;5134852;27;1181;-63
2022/01/08 04:05:58;;;;;;;;;;;;;;;;;;5134317;27;824;-63
2022/01/08 04:08:24;;;;;;;;;;;;;;;;;;5153147;27;1032;-63
2022/01/08 04:10:49;;;;;;;;;;;;;;;;;;5153340;27;998;-63
2022/01/08 04:13:19;;;;;;;;;;;;;;;;;;5153043;27;995;-63
2022/01/08 04:15:46;;;;;;;;;;;;;;;;;;5153100;27;868;-62
2022/01/08 04:18:12;;;;;;;;;;;;;;;;;;5153085;27;1901;-62
2022/01/08 04:21:44;;;;;;;;;;;;;;;;;;5134710;27;824;-62
2022/01/08 04:23:24;;;;;;;;;;;;;;;;;;5134428;27;1579;-62
2022/01/08 04:25:49;;;;;;;;;;;;;;;;;;5153347;27;1146;-63
2022/01/08 04:28:15;;;;;;;;;;;;;;;;;;5152870;27;934;-63
2022/01/08 04:30:40;;;;;;;;;;;;;;;;;;5153009;27;903;-63
2022/01/08 04:33:06;;;;;;;;;;;;;;;;;;5152809;27;812;-63
2022/01/08 04:35:31;;;;;;;;;;;;;;;;;;5152951;27;942;-63
2022/01/08 04:37:57;;;;;;;;;;;;;;;;;;5152840;27;1972;-63
2022/01/08 04:40:22;;;;;;;;;;;;;;;;;;5152894;27;1232;-62
2022/01/08 04:42:47;;;;;;;;;;;;;;;;;;5153209;27;777;-62
2022/01/08 04:45:13;;;;;;;;;;;;;;;;;;5152931;27;840;-62
2022/01/08 04:47:39;;;;;;;;;;;;;;;;;;5134547;27;940;-62
2022/01/08 04:50:04;;;;;;;;;;;;;;;;;;5152837;27;891;-62
2022/01/08 04:52:29;;;;;;;;;;;;;;;;;;5152507;27;1214;-63
2022/01/08 04:54:55;;;;;;;;;;;;;;;;;;5152324;27;832;-61
2022/01/08 04:57:20;;;;;;;;;;;;;;;;;;5128857;27;3385;-61
2022/01/08 04:59:45;;;;;;;;;;;;;;;;;;5139924;27;2772;-63
2022/01/08 05:02:11;;;;;;;;;;;;;;;;;;5113725;27;825;-60
2022/01/08 05:04:36;;;;;;;;;;;;;;;;;;5135634;27;2819;-61
2022/01/08 05:07:02;;;;;;;;;;;;;;;;;;5156537;27;926;-61
2022/01/08 05:09:27;;;;;;;;;;;;;;;;;;5137262;27;982;-60
2022/01/08 05:11:52;;;;;;;;;;;;;;;;;;5156059;27;891;-61
2022/01/08 05:14:17;;;;;;;;;;;;;;;;;;5155399;27;808;-61
2022/01/08 05:16:45;;;;;;;;;;;;;;;;;;5137194;27;2731;-60
2022/01/08 05:19:10;;;;;;;;;;;;;;;;;;5134411;27;1901;-61
2022/01/08 05:21:38;;;;;;;;;;;;;;;;;;5134872;27;765;-61
2022/01/08 05:24:03;;;;;;;;;;;;;;;;;;5134745;27;903;-61
2022/01/08 05:26:29;;;;;;;;;;;;;;;;;;5134473;27;1108;-61
2022/01/08 05:28:54;;;;;;;;;;;;;;;;;;5134538;27;900;-61
2022/01/08 05:31:22;;;;;;;;;;;;;;;;;;5134659;27;777;-61
2022/01/08 05:33:47;;;;;;;;;;;;;;;;;;5134620;27;856;-63
2022/01/08 05:36:12;;;;;;;;;;;;;;;;;;5134127;27;935;-64
2022/01/08 05:38:38;;;;;;;;;;;;;;;;;;5134505;27;1921;-64
2022/01/08 05:41:03;;;;;;;;;;;;;;;;;;5134541;27;1390;-64
2022/01/08 05:43:28;;;;;;;;;;;;;;;;;;5134516;27;824;-64
2022/01/08 05:45:56;;;;;;;;;;;;;;;;;;5115895;27;1210;-64
2022/01/08 05:48:21;;;;;;;;;;;;;;;;;;5134358;27;895;-64
2022/01/08 05:50:48;;;;;;;;;;;;;;;;;;5134439;27;824;-64
2022/01/08 05:53:14;;;;;;;;;;;;;;;;;;5146660;27;2457;-65
2022/01/08 05:55:39;;;;;;;;;;;;;;;;;;5134572;27;828;-65
2022/01/08 05:58:04;;;;;;;;;;;;;;;;;;5134441;27;1982;-65
2022/01/08 06:00:29;;;;;;;;;;;;;;;;;;5134467;27;919;-65
2022/01/08 06:02:54;;;;;;;;;;;;;;;;;;5134206;27;946;-64
2022/01/08 06:05:20;;;;;;;;;;;;;;;;;;5134022;27;1016;-65
2022/01/08 06:07:45;;;;;;;;;;;;;;;;;;5134535;27;840;-64
2022/01/08 06:10:10;;;;;;;;;;;;;;;;;;5134048;27;918;-64
2022/01/08 06:12:36;;;;;;;;;;;;;;;;;;5134174;27;876;-64
2022/01/08 06:15:01;;;;;;;;;;;;;;;;;;5134318;27;915;-64
2022/01/08 06:17:26;;;;;;;;;;;;;;;;;;5133987;27;825;-64
2022/01/08 06:19:52;;;;;;;;;;;;;;;;;;5134518;27;1955;-64
2022/01/08 06:22:17;;;;;;;;;;;;;;;;;;5115175;27;872;-65
2022/01/08 06:24:42;;;;;;;;;;;;;;;;;;5137187;27;3275;-64
2022/01/08 06:27:07;;;;;;;;;;;;;;;;;;5146865;27;2954;-65
2022/01/08 06:29:33;;;;;;;;;;;;;;;;;;5154345;27;792;-64
2022/01/08 06:31:58;;;;;;;;;;;;;;;;;;5134281;27;2824;-64
2022/01/08 06:34:23;;;;;;;;;;;;;;;;;;5133170;27;948;-64
2022/01/08 06:36:49;;;;;;;;;;;;;;;;;;5115432;27;1034;-64
2022/01/08 06:39:14;;;;;;;;;;;;;;;;;;5114381;27;1909;-63
2022/01/08 06:41:40;;;;;;;;;;;;;;;;;;5133250;27;1002;-63
2022/01/08 06:44:05;;;;;;;;;;;;;;;;;;5152438;27;2729;-64
2022/01/08 06:46:31;;;;;;;;;;;;;;;;;;5153793;27;915;-64
2022/01/08 06:48:56;;;;;;;;;;;;;;;;;;5135318;27;999;-64
2022/01/08 06:51:21;;;;;;;;;;;;;;;;;;5153562;27;1050;-64
2022/01/08 06:53:46;;;;;;;;;;;;;;;;;;5154190;27;843;-64
2022/01/08 06:56:11;;;;;;;;;;;;;;;;;;5134916;27;892;-64
2022/01/08 06:58:37;;;;;;;;;;;;;;;;;;5153537;27;2393;-64
2022/01/08 07:01:02;;;;;;;;;;;;;;;;;;5153816;27;812;-64
2022/01/08 07:03:27;;;;;;;;;;;;;;;;;;5134532;27;890;-64
2022/01/08 07:05:53;;;;;;;;;;;;;;;;;;5154159;27;915;-64
2022/01/08 07:08:18;;;;;;;;;;;;;;;;;;5152876;27;1761;-64
2022/01/08 07:10:44;;;;;;;;;;;;;;;;;;5134820;27;1209;-64
2022/01/08 07:13:09;;;;;;;;;;;;;;;;;;5148292;27;1270;-64
2022/01/08 07:15:34;;;;;;;;;;;;;;;;;;5133037;27;994;-64
2022/01/08 07:18:00;;;;;;;;;;;;;;;;;;5132673;27;1970;-64
2022/01/08 07:20:25;;;;;;;;;;;;;;;;;;5132210;27;2645;-63
2022/01/08 07:22:50;;;;;;;;;;;;;;;;;;5132909;27;1233;-64
2022/01/08 07:25:16;;;;;;;;;;;;;;;;;;5132480;27;1151;-63
2022/01/08 07:27:42;;;;;;;;;;;;;;;;;;5136407;27;1120;-63
2022/01/08 07:30:08;;;;;;;;;;;;;;;;;;5137336;27;1146;-64
2022/01/08 07:32:39;;;;;;;;;;;;;;;;;;5113792;27;1391;-63
2022/01/08 07:35:04;;;;;;;;;;;;;;;;;;5132362;27;1002;-63
2022/01/08 07:37:29;;;;;;;;;;;;;;;;;;5131784;27;907;-63
2022/01/08 07:39:55;;;;;;;;;;;;;;;;;;5113591;27;1902;-63
2022/01/08 07:42:20;;;;;;;;;;;;;;;;;;5132361;27;880;-63
2022/01/08 07:44:45;;;;;;;;;;;;;;;;;;5114257;28;951;-64
2022/01/08 07:47:10;;;;;;;;;;;;;;;;;;5131979;27;828;-64
2022/01/08 07:49:36;;;;;;;;;;;;;;;;;;5132406;28;753;-63
2022/01/08 07:52:01;;;;;;;;;;;;;;;;;;5113757;28;828;-64
2022/01/08 07:54:26;;;;;;;;;;;;;;;;;;5132187;28;946;-64
2022/01/08 07:56:51;;;;;;;;;;;;;;;;;;5132470;28;931;-64
2022/01/08 07:59:17;;;;;;;;;;;;;;;;;;5132092;28;1918;-63
2022/01/08 08:01:42;;;;;;;;;;;;;;;;;;5132451;28;821;-64
2022/01/08 08:04:08;;;;;;;;;;;;;;;;;;5113482;28;899;-64
2022/01/08 08:06:36;;;;;;;;;;;;;;;;;;5113283;28;927;-64
2022/01/08 08:09:02;;;;;;;;;;;;;;;;;;5132299;28;867;-64
2022/01/08 08:11:27;;;;;;;;;;;;;;;;;;5113906;28;855;-64
2022/01/08 08:13:52;;;;;;;;;;;;;;;;;;5132423;28;971;-64
2022/01/08 08:16:20;;;;;;;;;;;;;;;;;;5132352;28;808;-64
2022/01/08 08:18:45;;;;;;;;;;;;;;;;;;5132046;28;1901;-64
2022/01/08 08:21:10;;;;;;;;;;;;;;;;;;5147915;27;2810;-64
2022/01/08 08:23:35;;;;;;;;;;;;;;;;;;5152459;27;976;-64
2022/01/08 08:26:01;;;;;;;;;;;;;;;;;;5140071;27;3254;-64
2022/01/08 08:28:27;;;;;;;;;;;;;;;;;;5131546;28;1064;-64
2022/01/08 08:30:53;;;;;;;;;;;;;;;;;;5131895;28;809;-64
2022/01/08 08:33:19;;;;;;;;;;;;;;;;;;5113233;28;1292;-64
2022/01/08 08:35:44;;;;;;;;;;;;;;;;;;5132196;27;852;-64
2022/01/08 08:38:09;;;;;;;;;;;;;;;;;;5134933;27;1902;-64
2022/01/08 08:40:34;;;;;;;;;;;;;;;;;;5134997;27;1278;-64
2022/01/08 08:43:00;;;;;;;;;;;;;;;;;;5135731;27;892;-64
2022/01/08 08:45:25;;;;;;;;;;;;;;;;;;5135153;27;911;-64
2022/01/08 08:47:50;;;;;;;;;;;;;;;;;;5136072;27;931;-64
2022/01/08 08:50:16;;;;;;;;;;;;;;;;;;5135571;27;1595;-64
2022/01/08 08:52:41;;;;;;;;;;;;;;;;;;5135982;27;905;-64
2022/01/08 08:55:06;;;;;;;;;;;;;;;;;;5135821;27;815;-64
2022/01/08 08:57:32;;;;;;;;;;;;;;;;;;5135212;27;772;-64
2022/01/08 08:59:57;;;;;;;;;;;;;;;;;;5135471;27;1893;-64
2022/01/08 09:02:22;;;;;;;;;;;;;;;;;;5135202;27;876;-64
2022/01/08 09:04:48;;;;;;;;;;;;;;;;;;5136035;27;843;-64
2022/01/08 09:07:13;;;;;;;;;;;;;;;;;;5135316;27;840;-64
2022/01/08 09:09:39;;;;;;;;;;;;;;;;;;5134902;27;900;-64
2022/01/08 09:12:04;;;;;;;;;;;;;;;;;;5135325;27;1216;-64
2022/01/08 09:14:29;;;;;;;;;;;;;;;;;;5135061;27;872;-64
2022/01/08 09:16:57;;;;;;;;;;;;;;;;;;5117016;27;951;-63
2022/01/08 09:19:23;;;;;;;;;;;;;;;;;;5135020;27;1908;-64
2022/01/08 09:21:49;;;;;;;;;;;;;;;;;;5116632;27;1209;-64
2022/01/08 09:24:14;;;;;;;;;;;;;;;;;;5134913;27;856;-64
2022/01/08 09:26:40;;;;;;;;;;;;;;;;;;5134675;27;824;-64
2022/01/08 09:29:05;;;;;;;;;;;;;;;;;;5135068;27;824;-64
2022/01/08 09:31:31;;;;;;;;;;;;;;;;;;5134504;27;946;-64
2022/01/08 09:33:56;;;;;;;;;;;;;;;;;;5135178;27;947;-63
2022/01/08 09:36:22;;;;;;;;;;;;;;;;;;5135228;27;939;-64
2022/01/08 09:38:48;;;;;;;;;;;;;;;;;;5135725;27;1952;-64
2022/01/08 09:41:13;;;;;;;;;;;;;;;;;;5134598;27;1266;-64
2022/01/08 09:43:38;;;;;;;;;;;;;;;;;;5115451;27;1006;-64
2022/01/08 09:46:04;;;;;;;;;;;;;;;;;;5134508;27;750;-64
2022/01/08 09:48:29;;;;;;;;;;;;;;;;;;5133583;27;907;-65
2022/01/08 09:50:55;;;;;;;;;;;;;;;;;;5134406;27;855;-65
2022/01/08 09:53:21;;;;;;;;;;;;;;;;;;5133857;27;1030;-65
2022/01/08 09:55:46;;;;;;;;;;;;;;;;;;5134279;27;1012;-65
2022/01/08 09:58:12;;;;;;;;;;;;;;;;;;5133807;27;1970;-65
2022/01/08 10:00:37;;;;;;;;;;;;;;;;;;5134147;27;840;-65
2022/01/08 10:03:23;;;;;;;;;;;;;;;;;;5134808;27;812;-64
2022/01/08 10:05:50;;;;;;;;;;;;;;;;;;5134552;27;1565;-65
2022/01/08 10:08:15;;;;;;;;;;;;;;;;;;5134012;27;831;-64
2022/01/08 10:10:52;;;;;;;;;;;;;;;;;;5133023;27;2704;-64
2022/01/08 10:13:22;;;;;;;;;;;;;;;;;;5134253;27;1213;-64
2022/01/08 10:18:33;;;;;;;;;;;;;;;;;;5134303;27;1897;-64
2022/01/08 10:20:59;;;;;;;;;;;;;;;;;;5134894;27;856;-64
2022/01/08 10:23:26;;;;;;;;;;;;;;;;;;5133964;27;859;-64
2022/01/08 10:25:59;;;;;;;;;;;;;;;;;;5152282;27;2877;-64
2022/01/08 10:28:34;;;;;;;;;;;;;;;;;;5154627;27;880;-64
2022/01/08 10:31:17;;;;;;;;;;;;;;;;;;5154549;27;798;-64
2022/01/08 10:33:48;;;;;;;;;;;;;;;;;;5154376;27;896;-64
2022/01/08 10:36:13;;;;;;;;;;;;;;;;;;5154414;27;887;-64
2022/01/08 10:38:39;;;;;;;;;;;;;;;;;;5153918;27;1901;-64
2022/01/08 10:41:11;;;;;;;;;;;;;;;;;;5154274;27;1094;-64
2022/01/08 10:43:36;;;;;;;;;;;;;;;;;;5134675;27;906;-64
2022/01/08 10:46:13;;;;;;;;;;;;;;;;;;5154276;27;1095;-62
2022/01/08 10:48:42;;;;;;;;;;;;;;;;;;5153758;27;906;-63
2022/01/08 10:51:09;;;;;;;;;;;;;;;;;;5153845;27;977;-63
2022/01/08 10:53:54;;;;;;;;;;;;;;;;;;5134912;27;876;-63
2022/01/08 10:56:26;;;;;;;;;;;;;;;;;;5154031;27;816;-63
2022/01/08 10:58:55;;;;;;;;;;;;;;;;;;5153999;27;1902;-63
2022/01/08 11:01:40;;;;;;;;;;;;;;;;;;5153284;27;861;-63
2022/01/08 11:04:11;;;;;;;;;;;;;;;;;;5153789;27;1049;-63
2022/01/08 11:06:48;;;;;;;;;;;;;;;;;;5153575;27;836;-63
2022/01/08 11:09:13;;;;;;;;;;;;;;;;;;5154310;27;975;-63
2022/01/08 11:11:39;;;;;;;;;;;;;;;;;;5153106;27;796;-62
2022/01/08 11:14:07;;;;;;;;;;;;;;;;;;5134887;27;1068;-63
2022/01/08 11:16:34;;;;;;;;;;;;;;;;;;5152871;27;817;-63
2022/01/08 11:19:01;;;;;;;;;;;;;;;;;;5153358;27;1955;-64
2022/01/08 11:21:30;;;;;;;;;;;;;;;;;;5153309;27;883;-64
2022/01/08 11:23:59;;;;;;;;;;;;;;;;;;5134627;27;1386;-63
2022/01/08 11:26:26;;;;;;;;;;;;;;;;;;5152980;27;994;-64
2022/01/08 11:28:54;;;;;;;;;;;;;;;;;;5152382;27;828;-64
2022/01/08 11:31:20;;;;;;;;;;;;;;;;;;5152924;27;900;-64
2022/01/08 11:33:50;;;;;;;;;;;;;;;;;;5153107;27;1059;-64
2022/01/08 11:36:15;;;;;;;;;;;;;;;;;;5152879;27;827;-64
2022/01/08 11:38:43;;;;;;;;;;;;;;;;;;5152946;27;1897;-64
2022/01/08 11:41:08;;;;;;;;;;;;;;;;;;5152470;27;1209;-64
2022/01/08 11:43:35;;;;;;;;;;;;;;;;;;5152529;27;873;-64
2022/01/08 11:46:01;;;;;;;;;;;;;;;;;;5152793;27;828;-64
2022/01/08 11:48:32;;;;;;;;;;;;;;;;;;5152769;27;843;-64
2022/01/08 11:50:59;;;;;;;;;;;;;;;;;;5152764;27;1165;-64
2022/01/08 11:53:25;;;;;;;;;;;;;;;;;;5152566;27;879;-64
2022/01/08 11:55:51;;;;;;;;;;;;;;;;;;5152424;27;871;-63
2022/01/08 11:58:27;;;;;;;;;;;;;;;;;;5152761;27;1913;-64
2022/01/08 12:01:00;;;;;;;;;;;;;;;;;;5132336;27;2560;-63
2022/01/08 12:03:25;;;;;;;;;;;;;;;;;;5152828;27;903;-64
2022/01/08 12:05:51;;;;;;;;;;;;;;;;;;5152481;27;951;-64
2022/01/08 12:08:18;;;;;;;;;;;;;;;;;;5150582;27;2800;-63
2022/01/08 12:11:03;;;;;;;;;;;;;;;;;;5153185;27;852;-64
2022/01/08 12:13:45;;;;;;;;;;;;;;;;;;5156790;27;951;-63
2022/01/08 12:16:46;;;;;;;;;;;;;;;;;;5157110;27;888;-64
2022/01/08 12:19:31;;;;;;;;;;;;;;;;;;5052802;28;1898;-63
2022/01/08 12:21:57;;;;;;;;;;;;;;;;;;5130517;27;1738;-64
2022/01/08 12:24:25;;;;;;;;;;;;;;;;;;5138482;27;883;-63
2022/01/08 12:26:51;;;;;;;;;;;;;;;;;;5157059;27;911;-63
2022/01/08 12:29:31;;;;;;;;;;;;;;;;;;5156832;27;828;-64
2022/01/08 12:32:15;;;;;;;;;;;;;;;;;;5157404;27;900;-65
2022/01/08 12:34:47;;;;;;;;;;;;;;;;;;5157398;27;899;-65
2022/01/08 12:37:13;;;;;;;;;;;;;;;;;;5157058;27;1159;-65
2022/01/08 12:39:41;;;;;;;;;;;;;;;;;;5157013;27;1889;-65
2022/01/08 12:42:21;;;;;;;;;;;;;;;;;;5157525;27;875;-64
2022/01/08 12:45:06;;;;;;;;;;;;;;;;;;5157186;27;796;-65
2022/01/08 12:47:43;;;;;;;;;;;;;;;;;;5138741;27;1182;-65
2022/01/08 12:50:26;;;;;;;;;;;;;;;;;;5157640;27;959;-64
2022/01/08 12:53:07;;;;;;;;;;;;;;;;;;5139042;27;856;-64
2022/01/08 12:55:42;;;;;;;;;;;;;;;;;;5157486;27;924;-64
2022/01/08 12:58:14;;;;;;;;;;;;;;;;;;5139224;27;1350;-64
2022/01/08 13:00:58;;;;;;;;;;;;;;;;;;5156719;27;789;-64
2022/01/08 13:03:24;;;;;;;;;;;;;;;;;;5138240;27;2303;-64
2022/01/08 13:05:50;;;;;;;;;;;;;;;;;;5156574;27;757;-64
2022/01/08 13:08:22;;;;;;;;;;;;;;;;;;5156492;27;832;-65
2022/01/08 13:10:47;;;;;;;;;;;;;;;;;;5156372;27;910;-64
2022/01/08 13:13:12;;;;;;;;;;;;;;;;;;5156385;27;824;-65
2022/01/08 13:15:38;;;;;;;;;;;;;;;;;;5155591;27;926;-65
2022/01/08 13:18:26;;;;;;;;;;;;;;;;;;5155787;27;832;-65
2022/01/08 13:21:01;;;;;;;;;;;;;;;;;;5155560;27;938;-63
2022/01/08 13:23:26;;;;;;;;;;;;;;;;;;5155196;27;819;-63
2022/01/08 13:25:53;;;;;;;;;;;;;;;;;;5155847;27;813;-64
2022/01/08 13:28:22;;;;;;;;;;;;;;;;;;5136675;27;1951;-63
2022/01/08 13:30:51;;;;;;;;;;;;;;;;;;5156103;27;884;-64
2022/01/08 13:33:23;;;;;;;;;;;;;;;;;;5156196;27;891;-64
2022/01/08 13:35:57;;;;;;;;;;;;;;;;;;5155990;27;832;-64
2022/01/08 13:38:33;;;;;;;;;;;;;;;;;;5137516;27;1897;-64
2022/01/08 13:41:09;;;;;;;;;;;;;;;;;;5133466;27;1495;-64
2022/01/08 13:43:53;;;;;;;;;;;;;;;;;;5135558;27;1201;-64
2022/01/08 13:46:19;;;;;;;;;;;;;;;;;;5135795;27;836;-64
2022/01/08 13:48:44;;;;;;;;;;;;;;;;;;5132839;27;2842;-64
2022/01/08 13:51:09;;;;;;;;;;;;;;;;;;5135419;27;935;-64
2022/01/08 13:53:35;;;;;;;;;;;;;;;;;;5135068;27;909;-64
2022/01/08 13:56:00;;;;;;;;;;;;;;;;;;5135401;27;903;-64
2022/01/08 13:58:26;;;;;;;;;;;;;;;;;;5133172;27;2577;-63
2022/01/08 14:00:53;;;;;;;;;;;;;;;;;;5134687;27;826;-64
2022/01/08 14:03:22;;;;;;;;;;;;;;;;;;5134230;27;820;-64
2022/01/08 14:05:47;;;;;;;;;;;;;;;;;;5134567;27;923;-64
2022/01/08 14:08:12;;;;;;;;;;;;;;;;;;5134425;27;859;-64
2022/01/08 14:10:39;;;;;;;;;;;;;;;;;;5132898;27;907;-64
2022/01/08 14:13:15;;;;;;;;;;;;;;;;;;5134635;27;817;-64
2022/01/08 14:15:43;;;;;;;;;;;;;;;;;;5134536;27;804;-64
2022/01/08 14:18:29;;;;;;;;;;;;;;;;;;5134522;27;848;-64
2022/01/08 14:20:58;;;;;;;;;;;;;;;;;;5134141;27;946;-64
2022/01/08 14:23:28;;;;;;;;;;;;;;;;;;5134543;27;840;-64
2022/01/08 14:25:54;;;;;;;;;;;;;;;;;;5134415;27;801;-64
2022/01/08 14:28:19;;;;;;;;;;;;;;;;;;5134729;27;906;-64
2022/01/08 14:30:44;;;;;;;;;;;;;;;;;;5134761;27;831;-64
2022/01/08 14:33:10;;;;;;;;;;;;;;;;;;5134126;27;1011;-64
2022/01/08 14:35:35;;;;;;;;;;;;;;;;;;5133502;27;804;-64
2022/01/08 14:38:01;;;;;;;;;;;;;;;;;;5133661;27;1033;-67
2022/01/08 14:40:30;;;;;;;;;;;;;;;;;;5133657;27;1968;-65
2022/01/08 14:42:59;;;;;;;;;;;;;;;;;;5154360;27;895;-66
2022/01/08 14:45:26;;;;;;;;;;;;;;;;;;5154788;27;888;-66
2022/01/08 14:47:52;;;;;;;;;;;;;;;;;;5153965;27;1348;-64
2022/01/08 14:50:21;;;;;;;;;;;;;;;;;;5154260;27;844;-64
2022/01/08 14:52:47;;;;;;;;;;;;;;;;;;5154301;27;895;-64
2022/01/08 14:55:15;;;;;;;;;;;;;;;;;;5154943;27;848;-64
2022/01/08 14:57:41;;;;;;;;;;;;;;;;;;5153998;27;832;-64
2022/01/08 15:00:07;;;;;;;;;;;;;;;;;;5153941;27;1906;-64
2022/01/08 15:02:36;;;;;;;;;;;;;;;;;;5153261;27;902;-65
2022/01/08 15:05:02;;;;;;;;;;;;;;;;;;5153233;27;769;-65
2022/01/08 15:07:27;;;;;;;;;;;;;;;;;;5153661;27;954;-65
2022/01/08 15:09:52;;;;;;;;;;;;;;;;;;5152827;27;1045;-64
2022/01/08 15:12:18;;;;;;;;;;;;;;;;;;5153260;27;863;-64
2022/01/08 15:14:43;;;;;;;;;;;;;;;;;;5153141;27;797;-65
2022/01/08 15:17:08;;;;;;;;;;;;;;;;;;5152929;27;900;-65
2022/01/08 15:19:34;;;;;;;;;;;;;;;;;;5153243;27;1905;-65
2022/01/08 15:21:59;;;;;;;;;;;;;;;;;;5134766;27;824;-64
2022/01/08 15:24:25;;;;;;;;;;;;;;;;;;5134360;27;1233;-64
2022/01/08 15:26:51;;;;;;;;;;;;;;;;;;5153409;27;824;-64
2022/01/08 15:29:17;;;;;;;;;;;;;;;;;;5153284;27;832;-64
2022/01/08 15:31:42;;;;;;;;;;;;;;;;;;5152780;27;875;-64
2022/01/08 15:34:07;;;;;;;;;;;;;;;;;;5153099;27;816;-64
2022/01/08 15:36:33;;;;;;;;;;;;;;;;;;5152749;27;958;-65
2022/01/08 15:38:59;;;;;;;;;;;;;;;;;;5140818;27;2649;-65
2022/01/08 15:41:24;;;;;;;;;;;;;;;;;;5131957;27;1295;-64
2022/01/08 15:43:49;;;;;;;;;;;;;;;;;;5132565;27;915;-65
2022/01/08 15:46:15;;;;;;;;;;;;;;;;;;5131696;27;955;-64
2022/01/08 15:48:40;;;;;;;;;;;;;;;;;;5112967;27;2920;-64
2022/01/08 15:51:05;;;;;;;;;;;;;;;;;;5135420;27;1187;-65
2022/01/08 15:53:30;;;;;;;;;;;;;;;;;;5130160;27;1198;-64
2022/01/08 15:55:56;;;;;;;;;;;;;;;;;;5131097;27;1266;-65
2022/01/08 15:58:21;;;;;;;;;;;;;;;;;;5132342;28;1886;-65
2022/01/08 16:00:46;;;;;;;;;;;;;;;;;;5113201;28;876;-65
2022/01/08 16:03:12;;;;;;;;;;;;;;;;;;5132348;28;872;-65
2022/01/08 16:05:37;;;;;;;;;;;;;;;;;;5132614;28;832;-65
2022/01/08 16:08:04;;;;;;;;;;;;;;;;;;5131015;28;829;-65
2022/01/08 16:10:30;;;;;;;;;;;;;;;;;;5132017;28;808;-64
2022/01/08 16:12:55;;;;;;;;;;;;;;;;;;5131763;28;892;-65
2022/01/08 16:15:22;;;;;;;;;;;;;;;;;;5131900;28;915;-65
2022/01/08 16:17:47;;;;;;;;;;;;;;;;;;5131518;28;856;-65
2022/01/08 16:20:13;;;;;;;;;;;;;;;;;;5131695;28;1979;-64
2022/01/08 16:22:39;;;;;;;;;;;;;;;;;;5131866;28;916;-63
2022/01/08 16:25:04;;;;;;;;;;;;;;;;;;5113072;28;1171;-64
2022/01/08 16:27:30;;;;;;;;;;;;;;;;;;5130814;28;1116;-64
2022/01/08 16:29:55;;;;;;;;;;;;;;;;;;5112909;28;1556;-65
2022/01/08 16:32:21;;;;;;;;;;;;;;;;;;5096016;28;1354;-65
2022/01/08 16:34:46;;;;;;;;;;;;;;;;;;5112999;28;990;-64
2022/01/08 16:37:11;;;;;;;;;;;;;;;;;;5131255;28;986;-65
2022/01/08 16:39:37;;;;;;;;;;;;;;;;;;5131578;28;1917;-64
2022/01/08 16:42:02;;;;;;;;;;;;;;;;;;5131944;28;1194;-64
2022/01/08 16:44:28;;;;;;;;;;;;;;;;;;5131857;28;863;-64
2022/01/08 16:46:53;;;;;;;;;;;;;;;;;;5131519;28;855;-64
2022/01/08 16:49:19;;;;;;;;;;;;;;;;;;5113505;28;908;-64
2022/01/08 16:51:44;;;;;;;;;;;;;;;;;;5131552;28;911;-64
2022/01/08 16:54:11;;;;;;;;;;;;;;;;;;5131280;28;872;-64
2022/01/08 16:56:36;;;;;;;;;;;;;;;;;;5131517;28;947;-64
2022/01/08 16:59:01;;;;;;;;;;;;;;;;;;5133571;27;1913;-64
2022/01/08 17:01:28;;;;;;;;;;;;;;;;;;5135459;27;899;-64
2022/01/08 17:03:54;;;;;;;;;;;;;;;;;;5136819;27;793;-64
2022/01/08 17:06:19;;;;;;;;;;;;;;;;;;5135773;27;800;-65
2022/01/08 17:08:46;;;;;;;;;;;;;;;;;;5135662;27;901;-65
2022/01/08 17:11:12;;;;;;;;;;;;;;;;;;5135926;27;832;-65
2022/01/08 17:13:37;;;;;;;;;;;;;;;;;;5136407;27;1165;-64
2022/01/08 17:16:02;;;;;;;;;;;;;;;;;;5135532;27;832;-65
2022/01/08 17:18:29;;;;;;;;;;;;;;;;;;5136271;27;1974;-65
2022/01/08 17:20:55;;;;;;;;;;;;;;;;;;5136334;27;812;-64
2022/01/08 17:23:21;;;;;;;;;;;;;;;;;;5116999;27;910;-65
2022/01/08 17:25:46;;;;;;;;;;;;;;;;;;5135232;27;833;-65
2022/01/08 17:28:12;;;;;;;;;;;;;;;;;;5142434;27;2787;-65
2022/01/08 17:30:39;;;;;;;;;;;;;;;;;;5155482;27;986;-65
2022/01/08 17:33:05;;;;;;;;;;;;;;;;;;5154964;27;848;-64
2022/01/08 17:35:30;;;;;;;;;;;;;;;;;;5155403;27;840;-65